createdAt,value
2018-08-06T00:00:36.123Z,70.40
2018-08-06T00:03:05.381Z,70.40
2018-08-06T00:05:34.662Z,70.60
2018-08-06T00:08:04.002Z,70.80
2018-08-06T00:10:33.195Z,70.80
2018-08-06T00:13:02.476Z,70.80
2018-08-06T00:15:31.793Z,70.80
2018-08-06T00:18:00.959Z,70.80
2018-08-06T00:20:30.409Z,71.40
2018-08-06T00:22:59.720Z,71.00
2018-08-06T00:25:29.018Z,71.00
2018-08-06T00:27:58.103Z,70.20
2018-08-06T00:30:27.391Z,71.30
2018-08-06T00:32:57.850Z,71.30
2018-08-06T00:35:27.125Z,71.50
2018-08-06T00:37:56.247Z,71.50
2018-08-06T00:40:25.363Z,71.80
2018-08-06T00:42:55.796Z,71.70
2018-08-06T00:45:25.031Z,71.90
2018-08-06T00:47:54.186Z,72.10
2018-08-06T00:50:23.360Z,73.00
2018-08-06T00:52:52.659Z,72.40
2018-08-06T00:55:21.894Z,72.50
2018-08-06T00:57:51.165Z,72.60
2018-08-06T01:00:21.082Z,73.50
2018-08-06T01:02:50.521Z,73.00
2018-08-06T01:05:19.626Z,73.00
2018-08-06T01:07:48.721Z,73.00
2018-08-06T01:10:19.198Z,73.10
2018-08-06T01:12:48.579Z,74.10
2018-08-06T01:15:18.793Z,73.50
2018-08-06T01:17:47.996Z,73.80
2018-08-06T01:20:17.212Z,74.10
2018-08-06T01:22:46.708Z,74.00
2018-08-06T01:25:16.053Z,74.20
2018-08-06T01:27:45.218Z,74.30
2018-08-06T01:30:15.403Z,74.60
2018-08-06T01:32:44.647Z,74.70
2018-08-06T01:35:13.830Z,76.20
2018-08-06T01:40:16.015Z,77.40
2018-08-06T01:42:45.409Z,76.80
2018-08-06T01:45:16.116Z,77.90
2018-08-06T01:47:45.611Z,78.60
2018-08-06T01:50:15.844Z,78.40
2018-08-06T01:52:45.187Z,78.60
2018-08-06T01:55:14.592Z,78.50
2018-08-06T01:57:43.713Z,78.10
2018-08-06T02:00:14.940Z,78.20
2018-08-06T02:02:44.248Z,78.10
2018-08-06T02:05:13.457Z,78.20
2018-08-06T02:07:42.829Z,78.30
2018-08-06T02:10:13.769Z,78.90
2018-08-06T02:12:43.646Z,78.60
2018-08-06T02:15:13.340Z,78.40
2018-08-06T02:17:42.438Z,78.80
2018-08-06T02:20:13.328Z,78.20
2018-08-06T02:22:42.990Z,78.20
2018-08-06T02:25:12.258Z,78.40
2018-08-06T02:27:42.160Z,78.10
2018-08-06T02:30:13.308Z,78.20
2018-08-06T02:32:42.503Z,78.20
2018-08-06T02:35:14.380Z,78.00
2018-08-06T02:37:44.013Z,78.10
2018-08-06T02:40:16.615Z,78.20
2018-08-06T02:42:46.139Z,78.20
2018-08-06T02:45:15.330Z,77.90
2018-08-06T02:47:44.643Z,78.70
2018-08-06T02:50:13.731Z,78.10
2018-08-06T02:52:43.909Z,78.10
2018-08-06T02:55:15.309Z,78.10
2018-08-06T02:57:44.527Z,78.20
2018-08-06T03:00:19.403Z,78.30
2018-08-06T03:02:48.995Z,78.40
2018-08-06T03:05:19.371Z,78.70
2018-08-06T03:07:48.752Z,78.70
2018-08-06T03:10:17.995Z,81.00
2018-08-06T03:12:47.672Z,82.40
2018-08-06T03:15:17.098Z,82.80
2018-08-06T03:17:46.518Z,82.30
2018-08-06T03:20:15.935Z,82.30
2018-08-06T03:22:45.200Z,81.60
2018-08-06T03:25:15.764Z,82.00
2018-08-06T03:27:45.349Z,81.40
2018-08-06T03:30:15.993Z,81.10
2018-08-06T03:32:46.581Z,80.70
2018-08-06T03:35:16.775Z,80.50
2018-08-06T03:37:46.146Z,80.60
2018-08-06T03:40:15.351Z,80.70
2018-08-06T03:42:44.653Z,80.60
2018-08-06T03:45:13.786Z,80.40
2018-08-06T03:47:43.568Z,80.60
2018-08-06T03:50:13.871Z,80.40
2018-08-06T03:52:43.190Z,80.40
2018-08-06T03:55:12.737Z,81.20
2018-08-06T03:57:42.155Z,80.70
2018-08-06T04:00:12.943Z,81.00
2018-08-06T04:02:42.828Z,80.90
2018-08-06T04:05:12.995Z,80.90
2018-08-06T04:07:42.414Z,81.00
2018-08-06T04:10:14.364Z,81.00
2018-08-06T04:12:43.692Z,81.10
2018-08-06T04:15:13.146Z,81.10
2018-08-06T04:17:43.076Z,81.10
2018-08-06T04:20:12.996Z,81.10
2018-08-06T04:22:43.212Z,81.30
2018-08-06T04:25:12.731Z,81.40
2018-08-06T04:27:42.044Z,81.40
2018-08-06T04:30:15.580Z,81.50
2018-08-06T04:32:46.094Z,81.70
2018-08-06T04:35:15.668Z,81.80
2018-08-06T04:37:46.117Z,81.90
2018-08-06T04:40:15.432Z,81.90
2018-08-06T04:42:44.742Z,81.90
2018-08-06T04:45:14.268Z,82.30
2018-08-06T04:47:43.598Z,82.50
2018-08-06T04:50:14.234Z,82.00
2018-08-06T04:52:44.067Z,82.20
2018-08-06T04:55:14.398Z,82.20
2018-08-06T04:57:43.564Z,82.20
2018-08-06T05:00:14.433Z,82.40
2018-08-06T05:02:44.235Z,82.50
2018-08-06T05:05:13.587Z,82.60
2018-08-06T05:07:42.905Z,82.60
2018-08-06T05:10:12.144Z,82.80
2018-08-06T05:12:41.430Z,82.40
2018-08-06T05:15:10.522Z,82.50
2018-08-06T05:17:40.123Z,82.50
2018-08-06T05:20:09.230Z,81.70
2018-08-06T05:22:38.336Z,82.30
2018-08-06T05:25:07.563Z,82.80
2018-08-06T05:27:36.857Z,82.40
2018-08-06T05:30:08.181Z,82.30
2018-08-06T05:32:38.001Z,82.50
2018-08-06T05:35:07.610Z,82.40
2018-08-06T05:37:36.712Z,82.60
2018-08-06T05:40:06.718Z,83.10
2018-08-06T05:42:36.051Z,82.90
2018-08-06T05:45:06.733Z,82.60
2018-08-06T05:47:35.948Z,82.50
2018-08-06T05:50:07.246Z,82.90
2018-08-06T05:52:36.628Z,83.20
2018-08-06T05:55:07.172Z,83.40
2018-08-06T05:57:36.390Z,83.60
2018-08-06T06:00:09.550Z,84.20
2018-08-06T06:02:38.684Z,83.30
2018-08-06T06:05:08.780Z,83.90
2018-08-06T06:07:38.087Z,83.90
2018-08-06T06:10:08.202Z,83.70
2018-08-06T06:12:37.762Z,84.90
2018-08-06T06:15:12.564Z,84.80
2018-08-06T06:17:42.636Z,85.30
2018-08-06T06:20:12.083Z,84.50
2018-08-06T06:22:41.476Z,84.60
2018-08-06T06:25:12.486Z,85.10
2018-08-06T06:27:42.254Z,85.80
2018-08-06T06:30:13.983Z,83.90
2018-08-06T06:32:43.267Z,84.20
2018-08-06T06:35:13.052Z,83.50
2018-08-06T06:37:42.369Z,83.00
2018-08-06T06:40:12.402Z,82.60
2018-08-06T06:42:41.650Z,81.40
2018-08-06T06:47:40.035Z,81.40
2018-08-06T06:50:09.473Z,80.30
2018-08-06T06:52:38.609Z,81.80
2018-08-06T06:55:09.588Z,81.80
2018-08-06T06:57:38.706Z,81.10
2018-08-06T07:00:08.960Z,80.90
2018-08-06T07:02:38.268Z,80.70
2018-08-06T07:05:08.001Z,80.20
2018-08-06T07:07:37.584Z,80.10
2018-08-06T07:10:09.024Z,79.80
2018-08-06T07:12:38.567Z,79.50
2018-08-06T07:15:10.333Z,79.20
2018-08-06T07:17:39.892Z,77.90
2018-08-06T07:20:09.364Z,78.10
2018-08-06T07:22:38.653Z,76.20
2018-08-06T07:25:09.504Z,76.40
2018-08-06T07:27:39.507Z,76.00
2018-08-06T07:30:11.231Z,76.10
2018-08-06T07:32:40.974Z,75.80
2018-08-06T07:35:11.304Z,75.60
2018-08-06T07:37:40.790Z,75.40
2018-08-06T07:40:11.629Z,73.80
2018-08-06T07:42:41.704Z,73.90
2018-08-06T07:45:16.519Z,73.10
2018-08-06T07:47:46.230Z,73.20
2018-08-06T07:50:16.732Z,73.90
2018-08-06T07:52:46.112Z,71.50
2018-08-06T07:57:43.884Z,72.10
2018-08-06T08:02:46.835Z,71.70
2018-08-06T08:05:17.172Z,71.10
2018-08-06T08:07:47.169Z,69.00
2018-08-06T08:10:19.301Z,67.60
2018-08-06T08:12:48.474Z,67.00
2018-08-06T08:15:18.925Z,68.70
2018-08-06T08:17:48.313Z,67.50
2018-08-06T08:20:18.448Z,66.80
2018-08-06T08:22:47.591Z,67.80
2018-08-06T08:25:20.740Z,66.60
2018-08-06T08:27:50.990Z,64.90
2018-08-06T08:30:20.508Z,65.50
2018-08-06T08:32:49.661Z,65.60
2018-08-06T08:35:19.039Z,64.40
2018-08-06T08:37:48.421Z,64.30
2018-08-06T08:40:19.240Z,64.00
2018-08-06T08:42:50.154Z,63.30
2018-08-06T08:45:19.497Z,64.10
2018-08-06T08:47:48.714Z,60.50
2018-08-06T08:50:19.545Z,59.70
2018-08-06T08:52:48.902Z,59.80
2018-08-06T08:55:19.506Z,59.70
2018-08-06T08:57:48.891Z,59.40
2018-08-06T09:00:19.997Z,58.60
2018-08-06T09:02:50.085Z,57.80
2018-08-06T09:05:19.768Z,56.80
2018-08-06T09:07:49.653Z,55.90
2018-08-06T09:10:19.446Z,54.60
2018-08-06T09:12:48.910Z,54.00
2018-08-06T09:15:23.878Z,55.30
2018-08-06T09:17:53.338Z,54.50
2018-08-06T09:20:22.852Z,53.60
2018-08-06T09:22:52.164Z,52.80
2018-08-06T09:25:21.413Z,53.10
2018-08-06T09:27:51.268Z,50.00
2018-08-06T09:30:23.393Z,51.60
2018-08-06T09:32:53.842Z,50.20
2018-08-06T09:35:23.175Z,48.80
2018-08-06T09:37:52.383Z,49.80
2018-08-06T09:40:22.559Z,52.30
2018-08-06T09:42:52.851Z,49.80
2018-08-06T09:45:22.794Z,46.80
2018-08-06T09:47:53.127Z,46.10
2018-08-06T09:50:22.651Z,46.50
2018-08-06T09:52:52.944Z,47.00
2018-08-06T09:55:24.323Z,49.50
2018-08-06T09:57:53.819Z,44.50
2018-08-06T10:01:31.183Z,47.60
2018-08-06T10:04:00.516Z,45.30
2018-08-06T10:06:29.778Z,43.00
2018-08-06T10:08:58.822Z,42.70
2018-08-06T10:11:27.932Z,45.40
2018-08-06T10:13:56.927Z,44.50
2018-08-06T10:16:26.483Z,42.50
2018-08-06T10:18:55.563Z,41.30
2018-08-06T10:21:24.832Z,43.00
2018-08-06T10:23:54.069Z,41.80
2018-08-06T10:26:23.363Z,42.20
2018-08-06T10:31:21.452Z,41.60
2018-08-06T10:33:50.704Z,43.50
2018-08-06T10:36:20.837Z,41.10
2018-08-06T10:38:50.027Z,39.20
2018-08-06T10:41:19.489Z,40.10
2018-08-06T10:43:50.261Z,37.40
2018-08-06T10:46:19.464Z,39.80
2018-08-06T10:48:48.707Z,42.60
2018-08-06T10:51:18.338Z,38.30
2018-08-06T10:53:48.728Z,38.40
2018-08-06T10:56:18.130Z,37.70
2018-08-06T10:58:47.259Z,34.40
2018-08-06T11:01:16.630Z,36.00
2018-08-06T11:03:45.886Z,34.00
2018-08-06T11:06:15.101Z,34.80
2018-08-06T11:08:44.410Z,38.10
2018-08-06T11:11:13.678Z,34.40
2018-08-06T11:13:42.885Z,37.60
2018-08-06T11:16:12.190Z,39.40
2018-08-06T11:21:10.328Z,34.50
2018-08-06T11:23:40.922Z,35.50
2018-08-06T11:26:10.320Z,34.40
2018-08-06T11:28:39.515Z,33.20
2018-08-06T11:31:09.132Z,34.50
2018-08-06T11:33:38.360Z,34.10
2018-08-06T11:36:07.722Z,33.60
2018-08-06T11:38:37.051Z,33.30
2018-08-06T11:41:06.639Z,35.30
2018-08-06T11:43:35.868Z,35.50
2018-08-06T11:46:05.064Z,34.00
2018-08-06T11:48:34.229Z,36.80
2018-08-06T11:51:03.583Z,35.10
2018-08-06T11:53:32.780Z,35.50
2018-08-06T11:56:02.052Z,31.80
2018-08-06T11:58:31.190Z,31.60
2018-08-06T12:01:00.587Z,33.40
2018-08-06T12:03:29.984Z,36.00
2018-08-06T12:05:59.309Z,35.60
2018-08-06T12:08:28.813Z,35.40
2018-08-06T12:10:58.006Z,34.90
2018-08-06T12:13:27.204Z,31.50
2018-08-06T12:15:56.441Z,32.00
2018-08-06T12:18:25.588Z,31.10
2018-08-06T12:20:54.948Z,30.80
2018-08-06T12:23:24.218Z,30.60
2018-08-06T12:25:53.693Z,32.30
2018-08-06T12:28:22.925Z,33.50
2018-08-06T12:30:52.302Z,30.20
2018-08-06T12:33:21.434Z,31.10
2018-08-06T12:35:50.683Z,30.40
2018-08-06T12:38:20.025Z,31.60
2018-08-06T12:40:49.249Z,35.40
2018-08-06T12:43:18.542Z,30.10
2018-08-06T12:45:47.754Z,29.50
2018-08-06T12:48:16.840Z,29.70
2018-08-06T12:50:46.062Z,29.70
2018-08-06T12:53:15.432Z,31.60
2018-08-06T12:55:44.846Z,31.40
2018-08-06T12:58:14.167Z,32.00
2018-08-06T13:00:43.434Z,31.40
2018-08-06T13:03:12.740Z,30.50
2018-08-06T13:05:41.973Z,31.20
2018-08-06T13:08:11.349Z,31.20
2018-08-06T13:10:40.550Z,30.60
2018-08-06T13:13:09.992Z,29.90
2018-08-06T13:15:39.286Z,29.30
2018-08-06T13:18:08.514Z,30.40
2018-08-06T13:20:37.976Z,31.80
2018-08-06T13:23:07.469Z,32.00
2018-08-06T13:25:37.269Z,31.60
2018-08-06T13:28:06.629Z,28.90
2018-08-06T13:30:35.746Z,28.80
2018-08-06T13:33:05.008Z,30.40
2018-08-06T13:35:34.244Z,30.00
2018-08-06T13:38:03.554Z,29.80
2018-08-06T13:43:01.701Z,28.60
2018-08-06T13:45:32.042Z,29.10
2018-08-06T13:48:01.251Z,30.00
2018-08-06T13:50:30.572Z,30.60
2018-08-06T13:52:59.833Z,28.50
2018-08-06T13:55:29.294Z,26.90
2018-08-06T13:57:58.493Z,28.00
2018-08-06T14:00:27.787Z,29.70
2018-08-06T14:02:57.188Z,27.30
2018-08-06T14:05:26.420Z,24.40
2018-08-06T14:07:55.695Z,25.90
2018-08-06T14:12:53.702Z,26.50
2018-08-06T14:15:22.901Z,27.30
2018-08-06T14:17:52.125Z,27.20
2018-08-06T14:20:21.270Z,26.90
2018-08-06T14:22:50.571Z,25.80
2018-08-06T14:25:19.662Z,25.70
2018-08-06T14:27:48.985Z,26.60
2018-08-06T14:30:18.445Z,30.00
2018-08-06T14:32:47.613Z,27.40
2018-08-06T14:35:17.133Z,27.40
2018-08-06T14:37:46.238Z,26.80
2018-08-06T14:40:17.015Z,25.00
2018-08-06T14:42:46.583Z,24.20
2018-08-06T14:45:16.047Z,23.70
2018-08-06T14:47:45.352Z,24.40
2018-08-06T14:52:44.530Z,24.30
2018-08-06T14:55:13.885Z,25.30
2018-08-06T14:57:43.220Z,26.10
2018-08-06T15:02:45.027Z,25.70
2018-08-06T15:05:14.304Z,25.70
2018-08-06T15:07:43.583Z,25.10
2018-08-06T15:10:13.867Z,23.90
2018-08-06T15:12:43.198Z,25.50
2018-08-06T15:15:13.949Z,26.00
2018-08-06T15:17:43.877Z,25.70
2018-08-06T15:20:14.784Z,24.20
2018-08-06T15:22:44.030Z,24.50
2018-08-06T15:25:19.890Z,25.90
2018-08-06T15:27:49.162Z,26.40
2018-08-06T15:30:18.589Z,24.60
2018-08-06T15:32:47.905Z,25.60
2018-08-06T15:35:17.101Z,25.20
2018-08-06T15:37:46.412Z,25.80
2018-08-06T15:40:17.329Z,26.70
2018-08-06T15:42:46.625Z,25.60
2018-08-06T15:45:17.272Z,25.30
2018-08-06T15:47:46.936Z,25.80
2018-08-06T15:50:18.220Z,27.30
2018-08-06T15:52:47.559Z,25.40
2018-08-06T15:55:16.829Z,25.10
2018-08-06T15:57:46.150Z,25.20
2018-08-06T16:00:18.042Z,24.70
2018-08-06T16:02:47.624Z,23.10
2018-08-06T16:05:16.936Z,23.80
2018-08-06T16:07:46.322Z,23.00
2018-08-06T16:10:15.903Z,23.50
2018-08-06T16:12:45.004Z,23.50
2018-08-06T16:15:15.139Z,23.80
2018-08-06T16:17:44.851Z,24.00
2018-08-06T16:20:15.249Z,24.70
2018-08-06T16:22:44.607Z,24.50
2018-08-06T16:25:14.437Z,24.00
2018-08-06T16:27:43.736Z,24.50
2018-08-06T16:30:15.772Z,25.20
2018-08-06T16:32:45.953Z,25.30
2018-08-06T16:35:16.071Z,25.90
2018-08-06T16:37:45.259Z,25.50
2018-08-06T16:40:14.560Z,25.90
2018-08-06T16:42:43.834Z,26.50
2018-08-06T16:45:13.273Z,26.00
2018-08-06T16:47:43.989Z,26.40
2018-08-06T16:50:14.996Z,27.30
2018-08-06T16:52:44.581Z,26.70
2018-08-06T16:55:13.869Z,27.10
2018-08-06T17:00:15.500Z,26.80
2018-08-06T17:02:44.912Z,27.50
2018-08-06T17:05:14.502Z,28.60
2018-08-06T17:07:45.082Z,27.40
2018-08-06T17:10:15.981Z,27.50
2018-08-06T17:12:46.091Z,27.70
2018-08-06T17:15:16.506Z,26.00
2018-08-06T17:17:46.275Z,27.90
2018-08-06T17:20:17.294Z,26.10
2018-08-06T17:22:47.607Z,26.80
2018-08-06T17:25:16.823Z,27.50
2018-08-06T17:27:46.100Z,27.90
2018-08-06T17:30:16.080Z,29.80
2018-08-06T17:32:45.680Z,27.30
2018-08-06T17:35:15.458Z,27.40
2018-08-06T17:37:44.722Z,27.40
2018-08-06T17:40:17.013Z,26.60
2018-08-06T17:42:46.459Z,27.10
2018-08-06T17:45:18.921Z,29.20
2018-08-06T17:47:49.012Z,26.90
2018-08-06T17:50:19.741Z,28.00
2018-08-06T17:52:51.154Z,28.00
2018-08-06T17:55:21.225Z,27.60
2018-08-06T17:57:50.381Z,27.70
2018-08-06T18:00:19.932Z,28.90
2018-08-06T18:02:49.389Z,28.00
2018-08-06T18:05:19.186Z,27.70
2018-08-06T18:07:48.375Z,28.30
2018-08-06T18:13:08.235Z,28.50
2018-08-06T18:15:38.242Z,30.40
2018-08-06T18:18:07.329Z,31.10
2018-08-06T18:20:36.559Z,33.00
2018-08-06T18:25:34.494Z,33.30
2018-08-06T18:28:03.799Z,33.80
2018-08-06T18:30:33.206Z,35.10
2018-08-06T18:33:02.561Z,34.30
2018-08-06T18:38:01.232Z,36.80
2018-08-06T18:40:30.430Z,38.10
2018-08-06T18:42:59.697Z,38.20
2018-08-06T18:45:29.179Z,38.70
2018-08-06T18:47:59.034Z,39.00
2018-08-06T18:50:28.412Z,39.80
2018-08-06T18:57:54.809Z,39.60
2018-08-06T19:00:24.746Z,40.80
2018-08-06T19:02:53.995Z,40.80
2018-08-06T19:05:23.253Z,41.30
2018-08-06T19:07:52.542Z,42.20
2018-08-06T19:10:21.798Z,42.00
2018-08-06T19:12:56.407Z,42.90
2018-08-06T19:15:25.714Z,42.60
2018-08-06T19:17:59.972Z,43.30
2018-08-06T19:20:29.159Z,43.40
2018-08-06T19:22:58.298Z,44.50
2018-08-06T19:25:28.967Z,45.50
2018-08-06T19:27:58.353Z,45.60
2018-08-06T19:30:32.768Z,46.30
2018-08-06T19:33:02.386Z,46.10
2018-08-06T19:35:31.672Z,46.50
2018-08-06T19:38:01.032Z,46.80
2018-08-06T19:40:30.297Z,47.10
2018-08-06T19:43:04.698Z,47.20
2018-08-06T19:45:34.143Z,47.40
2018-08-06T19:48:05.004Z,47.80
2018-08-06T19:50:39.131Z,47.90
2018-08-06T19:53:08.544Z,47.90
2018-08-06T19:55:42.960Z,48.20
2018-08-06T19:58:12.169Z,48.10
2018-08-06T20:00:41.254Z,48.10
2018-08-06T20:03:10.526Z,48.50
2018-08-06T20:05:39.796Z,49.20
2018-08-06T20:08:09.061Z,49.30
2018-08-06T20:10:38.166Z,49.90
2018-08-06T20:13:07.551Z,50.80
2018-08-06T20:15:36.865Z,50.20
2018-08-06T20:18:06.248Z,50.20
2018-08-06T20:20:35.539Z,51.20
2018-08-06T20:23:05.177Z,51.70
2018-08-06T20:25:34.597Z,51.30
2018-08-06T20:28:03.804Z,51.20
2018-08-06T20:30:33.196Z,51.30
2018-08-06T20:33:02.628Z,51.40
2018-08-06T20:35:31.903Z,51.60
2018-08-06T20:38:00.801Z,51.40
2018-08-06T20:40:29.960Z,52.40
2018-08-06T20:42:59.213Z,51.80
2018-08-06T20:45:28.554Z,52.30
2018-08-06T20:47:57.725Z,51.90
2018-08-06T20:50:27.090Z,51.50
2018-08-06T20:52:56.323Z,52.00
2018-08-06T20:55:25.518Z,51.80
2018-08-06T20:57:54.731Z,52.00
2018-08-06T21:00:24.666Z,52.40
2018-08-06T21:02:54.115Z,52.80
2018-08-06T21:05:23.443Z,53.00
2018-08-06T21:07:52.880Z,54.00
2018-08-06T21:10:22.215Z,54.30
2018-08-06T21:12:51.555Z,54.70
2018-08-06T21:15:20.748Z,54.90
2018-08-06T21:17:50.071Z,55.20
2018-08-06T21:20:19.951Z,55.60
2018-08-06T21:22:49.986Z,55.50
2018-08-06T21:25:19.130Z,56.30
2018-08-06T21:27:48.993Z,56.80
2018-08-06T21:30:20.154Z,56.30
2018-08-06T21:32:53.248Z,56.30
2018-08-06T21:35:23.347Z,55.90
2018-08-06T21:37:53.551Z,55.90
2018-08-06T21:40:23.619Z,56.10
2018-08-06T21:42:53.015Z,56.10
2018-08-06T21:45:22.275Z,56.90
2018-08-06T21:47:51.749Z,57.00
2018-08-06T21:50:21.310Z,57.60
2018-08-06T21:52:50.726Z,58.10
2018-08-06T21:55:20.112Z,58.30
2018-08-06T21:57:49.302Z,58.40
2018-08-06T22:02:56.377Z,59.10
2018-08-06T22:05:25.656Z,59.10
2018-08-06T22:07:54.786Z,59.00
2018-08-06T22:10:23.996Z,59.10
2018-08-06T22:15:22.052Z,59.80
2018-08-06T22:17:51.360Z,59.40
2018-08-06T22:20:20.562Z,59.50
2018-08-06T22:22:49.869Z,59.60
2018-08-06T22:25:18.977Z,59.60
2018-08-06T22:30:16.788Z,59.40
2018-08-06T22:32:45.912Z,59.20
2018-08-06T22:35:15.291Z,60.00
2018-08-06T22:37:44.596Z,59.60
2018-08-06T22:40:14.108Z,60.00
2018-08-06T22:42:43.351Z,60.00
2018-08-06T22:45:13.343Z,60.10
2018-08-06T22:47:43.442Z,60.30
2018-08-06T22:50:13.762Z,60.50
2018-08-06T22:52:44.514Z,60.80
2018-08-06T22:55:13.921Z,60.80
2018-08-06T23:00:14.411Z,61.30
2018-08-06T23:02:44.128Z,61.00
2018-08-06T23:05:14.717Z,60.90
2018-08-06T23:07:44.059Z,61.10
2018-08-06T23:10:17.528Z,61.30
2018-08-06T23:12:46.750Z,61.30
2018-08-06T23:15:16.731Z,61.70
2018-08-06T23:17:46.276Z,62.00
2018-08-06T23:20:15.554Z,62.10
2018-08-06T23:22:44.641Z,62.50
2018-08-06T23:25:13.758Z,62.10
2018-08-06T23:27:42.957Z,62.50
2018-08-06T23:32:43.149Z,63.50
2018-08-06T23:35:13.178Z,62.80
2018-08-06T23:37:43.513Z,63.30
2018-08-06T23:40:13.511Z,63.10
2018-08-06T23:42:43.229Z,63.40
2018-08-06T23:45:14.634Z,63.50
2018-08-06T23:47:43.743Z,64.20
2018-08-06T23:52:43.769Z,64.60
2018-08-06T23:55:14.220Z,64.50
2018-08-06T23:57:43.407Z,64.80
